Time;durP1;ratioP1;P1;durP2;ratioP2;P2;SDS_P1;SDS_P2;PMS_P1;PMS_P2;Temp;Humidity;BMP_temperature;BMP_pressure;BME280_temperature;BME280_humidity;BME280_pressure;Samples;Min_cycle;Max_cycle;Signal;HPM_P1;HPM_P2
2022/08/25 00:00:08;;;;;;;13.70;4.40;;;;;;;19.45;100.00;100528.86;105138;1271;61088;-77
2022/08/25 00:03:08;;;;;;;12.50;4.50;;;;;;;19.42;100.00;100525.92;105271;1271;59596;-77
2022/08/25 00:05:56;;;;;;;13.30;4.40;;;;;;;19.43;100.00;100523.54;105039;1271;73238;-78
2022/08/25 00:08:45;;;;;;;10.40;4.20;;;;;;;19.44;100.00;100519.72;105157;1271;69756;-78
2022/08/25 00:11:37;;;;;;;17.00;4.80;;;;;;;19.46;100.00;100517.09;105108;1271;72737;-77
2022/08/25 00:14:32;;;;;;;13.40;3.90;;;;;;;19.46;100.00;100516.86;105149;1271;59680;-78
2022/08/25 00:17:20;;;;;;;23.40;4.40;;;;;;;19.48;100.00;100526.34;105308;1271;61559;-77
2022/08/25 00:20:09;;;;;;;14.10;3.80;;;;;;;19.50;100.00;100521.09;105127;1271;74705;-78
2022/08/25 00:23:06;;;;;;;18.30;4.60;;;;;;;19.52;100.00;100518.89;105016;1271;68988;-76
2022/08/25 00:25:55;;;;;;;11.00;3.70;;;;;;;19.55;100.00;100516.47;105170;1271;74491;-78
2022/08/25 00:28:44;;;;;;;12.50;3.80;;;;;;;19.59;100.00;100517.64;105198;1271;60291;-78
2022/08/25 00:31:32;;;;;;;12.50;4.00;;;;;;;19.59;100.00;100514.20;104996;1271;61242;-77
2022/08/25 00:34:33;;;;;;;13.70;4.00;;;;;;;19.60;100.00;100512.15;105022;1271;74978;-79
2022/08/25 00:37:21;;;;;;;13.40;4.50;;;;;;;19.58;100.00;100511.77;105054;1271;66831;-77
2022/08/25 00:40:11;;;;;;;10.60;3.60;;;;;;;19.55;100.00;100511.20;105256;1271;72941;-77
2022/08/25 00:42:59;;;;;;;13.70;3.80;;;;;;;19.54;100.00;100508.09;105074;1271;60641;-78
2022/08/25 00:45:47;;;;;;;15.20;4.10;;;;;;;19.54;100.00;100510.05;105161;1271;62026;-78
2022/08/25 00:48:37;;;;;;;15.00;4.40;;;;;;;19.54;100.00;100507.34;105280;1271;74783;-77
2022/08/25 00:51:45;;;;;;;11.10;3.80;;;;;;;19.54;100.00;100506.27;105093;1271;68658;-77
2022/08/25 00:54:50;;;;;;;13.70;4.20;;;;;;;19.53;100.00;100507.38;105052;1271;74347;-77
2022/08/25 00:58:12;;;;;;;13.10;4.10;;;;;;;19.54;100.00;100509.67;105059;1271;59741;-77
2022/08/25 01:01:00;;;;;;;15.50;4.60;;;;;;;19.52;100.00;100509.34;105199;1271;62331;-78
2022/08/25 01:03:49;;;;;;;14.00;4.70;;;;;;;19.54;100.00;100510.58;105204;1269;74737;-78
2022/08/25 01:06:43;;;;;;;12.30;4.40;;;;;;;19.55;100.00;100510.88;105240;1271;68826;-77
2022/08/25 01:09:32;;;;;;;13.10;4.50;;;;;;;19.56;100.00;100513.90;104893;1274;73103;-79
2022/08/25 01:12:21;;;;;;;11.60;4.00;;;;;;;19.56;100.00;100512.86;105038;1271;60395;-77
2022/08/25 01:15:13;;;;;;;15.10;4.30;;;;;;;19.55;100.00;100513.53;105037;1271;61068;-76
2022/08/25 01:18:00;;;;;;;12.90;4.20;;;;;;;19.55;100.00;100513.87;105252;1271;74595;-77
2022/08/25 01:20:53;;;;;;;12.50;3.50;;;;;;;19.54;100.00;100511.81;105262;1271;69235;-78
2022/08/25 01:23:44;;;;;;;12.70;4.20;;;;;;;19.53;100.00;100508.69;105078;1271;74351;-77
2022/08/25 01:26:34;;;;;;;11.30;3.70;;;;;;;19.52;100.00;100509.75;104853;1271;60297;-79
2022/08/25 01:29:25;;;;;;;12.60;4.20;;;;;;;19.49;100.00;100515.06;105065;1271;60771;-78
2022/08/25 01:32:14;;;;;;;13.00;4.60;;;;;;;19.47;100.00;100516.02;105061;1271;71949;-78
2022/08/25 01:35:03;;;;;;;12.80;4.20;;;;;;;19.46;100.00;100519.73;104971;1271;67615;-79
2022/08/25 01:37:51;;;;;;;12.80;4.30;;;;;;;19.46;100.00;100518.64;105254;1271;74374;-79
2022/08/25 01:40:41;;;;;;;15.70;4.50;;;;;;;19.45;100.00;100515.84;105330;1271;61237;-78
2022/08/25 01:43:36;;;;;;;13.80;4.20;;;;;;;19.42;100.00;100513.71;105392;1271;59787;-78
2022/08/25 01:46:42;;;;;;;15.60;4.90;;;;;;;19.36;100.00;100513.77;105241;1271;74639;-78
2022/08/25 01:49:31;;;;;;;12.60;4.60;;;;;;;19.32;100.00;100513.09;105235;1271;68560;-79
2022/08/25 01:52:49;;;;;;;14.80;4.60;;;;;;;19.29;100.00;100511.50;105031;1271;73933;-78
2022/08/25 01:56:00;;;;;;;12.60;5.10;;;;;;;19.22;100.00;100509.70;104987;1271;60368;-77
2022/08/25 01:58:50;;;;;;;13.70;5.50;;;;;;;19.17;100.00;100506.95;105092;1271;60009;-77
2022/08/25 02:01:38;;;;;;;16.50;4.70;;;;;;;19.15;100.00;100507.71;104182;1271;1521069;-80
2022/08/25 02:04:30;;;;;;;14.40;5.70;;;;;;;19.15;100.00;100504.12;105073;1271;68217;-78
2022/08/25 02:07:19;;;;;;;19.10;5.80;;;;;;;19.18;100.00;100507.98;105022;1271;73388;-77
2022/08/25 02:10:10;;;;;;;14.50;4.40;;;;;;;19.21;100.00;100504.27;105050;1271;61309;-77
2022/08/25 02:12:58;;;;;;;17.20;5.40;;;;;;;19.25;100.00;100499.15;105359;1271;59586;-78
2022/08/25 02:15:51;;;;;;;13.30;4.50;;;;;;;19.29;100.00;100495.31;105179;1271;71837;-79
2022/08/25 02:18:39;;;;;;;16.40;4.80;;;;;;;19.31;100.00;100498.09;105087;1271;66901;-79
2022/08/25 02:21:28;;;;;;;15.60;5.60;;;;;;;19.35;100.00;100493.12;105052;1271;72631;-78
2022/08/25 02:24:17;;;;;;;14.50;5.10;;;;;;;19.39;100.00;100497.28;105105;1271;59754;-80
2022/08/25 02:27:05;;;;;;;15.60;5.30;;;;;;;19.40;100.00;100501.06;105184;1271;59620;-77
2022/08/25 02:29:53;;;;;;;15.00;5.80;;;;;;;19.42;100.00;100500.35;105072;1271;72040;-77
2022/08/25 02:32:41;;;;;;;14.10;6.00;;;;;;;19.43;100.00;100498.67;105160;1271;66933;-78
2022/08/25 02:35:47;;;;;;;;;;;;;;;;;;;;;
2022/08/25 02:38:40;;;;;;;17.50;6.20;;;;;;;19.43;100.00;100489.33;105338;1271;60818;-78
2022/08/25 02:41:29;;;;;;;15.40;6.30;;;;;;;19.43;100.00;100481.91;105020;1271;60283;-77
2022/08/25 02:44:18;;;;;;;18.10;6.60;;;;;;;19.43;100.00;100485.14;105119;1271;74844;-77
2022/08/25 02:47:06;;;;;;;15.20;5.90;;;;;;;19.45;100.00;100485.52;105234;1271;67767;-78
2022/08/25 02:49:54;;;;;;;16.40;6.00;;;;;;;19.47;100.00;100492.67;105167;1271;74519;-78
2022/08/25 02:52:43;;;;;;;15.00;5.70;;;;;;;19.50;100.00;100482.91;105361;1271;60351;-78
2022/08/25 02:55:31;;;;;;;15.90;6.10;;;;;;;19.54;100.00;100476.61;105048;1271;61635;-78
2022/08/25 02:58:21;;;;;;;14.30;5.90;;;;;;;19.57;100.00;100478.23;105022;1271;71849;-78
2022/08/25 03:01:10;;;;;;;14.50;5.30;;;;;;;19.60;100.00;100477.36;105059;1271;68021;-78
2022/08/25 03:04:00;;;;;;;16.00;6.00;;;;;;;19.62;100.00;100478.38;105162;1271;72896;-81
2022/08/25 03:06:48;;;;;;;12.90;5.70;;;;;;;19.65;100.00;100477.02;105025;1271;59942;-79
2022/08/25 03:09:36;;;;;;;13.40;5.70;;;;;;;19.67;100.00;100479.32;105066;1271;59755;-77
2022/08/25 03:12:25;;;;;;;16.00;5.10;;;;;;;19.68;100.00;100483.64;105047;1271;73329;-79
2022/08/25 03:15:16;;;;;;;15.40;5.50;;;;;;;19.69;100.00;100489.48;105064;1269;66625;-78
2022/08/25 03:18:05;;;;;;;16.00;5.10;;;;;;;19.72;100.00;100487.38;105019;1271;73458;-79
2022/08/25 03:20:55;;;;;;;13.50;5.30;;;;;;;19.75;100.00;100488.16;105090;1271;59782;-78
2022/08/25 03:23:44;;;;;;;12.50;5.90;;;;;;;19.77;100.00;100483.45;105123;1271;59634;-78
2022/08/25 03:29:41;;;;;;;12.30;4.90;;;;;;;19.85;100.00;100479.91;105012;1271;69520;-77
2022/08/25 03:32:29;;;;;;;12.90;5.20;;;;;;;19.86;100.00;100478.13;105268;1271;74153;-77
2022/08/25 03:35:19;;;;;;;15.00;5.00;;;;;;;19.88;100.00;100480.45;105019;1271;60783;-77
2022/08/25 03:38:07;;;;;;;15.50;5.00;;;;;;;19.89;100.00;100475.95;104890;1271;59631;-77
2022/08/25 03:40:55;;;;;;;12.20;5.60;;;;;;;19.91;100.00;100482.23;105028;1271;73701;-78
2022/08/25 03:43:43;;;;;;;11.50;4.90;;;;;;;19.94;100.00;100479.65;105053;1271;68621;-78
2022/08/25 03:46:43;;;;;;;12.50;5.60;;;;;;;19.96;100.00;100481.73;105056;1271;73318;-77
2022/08/25 03:49:31;;;;;;;13.50;5.20;;;;;;;19.97;100.00;100480.05;105055;1271;61630;-79
2022/08/25 03:52:21;;;;;;;12.10;4.60;;;;;;;19.97;100.00;100479.87;105328;1271;60904;-79
2022/08/25 03:55:13;;;;;;;12.00;4.70;;;;;;;19.95;100.00;100486.57;105212;1271;73403;-78
2022/08/25 03:58:01;;;;;;;11.50;4.90;;;;;;;19.94;100.00;100484.52;105097;1271;67387;-79
2022/08/25 04:00:49;;;;;;;12.70;5.10;;;;;;;19.94;100.00;100481.63;105253;1271;73078;-78
2022/08/25 04:03:37;;;;;;;13.70;4.70;;;;;;;19.94;100.00;100484.87;105156;1271;60266;-78
2022/08/25 04:06:25;;;;;;;12.60;4.80;;;;;;;19.94;100.00;100486.25;105206;1271;60629;-78
2022/08/25 04:09:13;;;;;;;12.90;5.60;;;;;;;19.94;100.00;100480.88;105055;1271;72006;-78
2022/08/25 04:12:01;;;;;;;13.20;5.20;;;;;;;19.94;100.00;100476.34;105120;1270;66903;-77
2022/08/25 04:14:49;;;;;;;16.60;4.90;;;;;;;19.96;100.00;100480.70;105070;1271;72684;-78
2022/08/25 04:17:39;;;;;;;13.60;4.90;;;;;;;19.96;100.00;100478.90;105040;1271;59662;-78
2022/08/25 04:20:27;;;;;;;12.40;5.20;;;;;;;19.96;100.00;100481.33;105082;1274;62286;-78
2022/08/25 04:23:15;;;;;;;14.00;5.20;;;;;;;19.98;100.00;100483.81;105222;1271;73657;-79
2022/08/25 04:26:28;;;;;;;13.40;5.00;;;;;;;20.00;100.00;100482.30;105229;1271;66727;-80
2022/08/25 04:29:21;;;;;;;16.10;5.00;;;;;;;20.04;100.00;100475.20;105337;1271;73355;-79
2022/08/25 04:32:10;;;;;;;11.90;5.10;;;;;;;20.11;100.00;100475.52;105256;1271;59680;-79
2022/08/25 04:34:59;;;;;;;13.10;5.00;;;;;;;20.18;100.00;100476.09;105158;1271;60355;-80
2022/08/25 04:37:47;;;;;;;13.50;5.00;;;;;;;20.22;100.00;100480.50;105135;1271;74886;-78
2022/08/25 04:40:37;;;;;;;13.70;5.40;;;;;;;20.21;100.00;100479.30;105168;1270;67864;-81
2022/08/25 04:43:25;;;;;;;12.10;4.70;;;;;;;20.23;100.00;100483.07;105150;1271;73383;-78
2022/08/25 04:46:23;;;;;;;16.00;5.40;;;;;;;20.23;100.00;100481.83;105317;1271;61447;-78
2022/08/25 04:49:11;;;;;;;17.60;5.90;;;;;;;20.26;100.00;100488.70;105212;1271;61804;-78
2022/08/25 04:51:59;;;;;;;12.30;4.40;;;;;;;20.29;100.00;100487.38;105248;1270;73233;-79
2022/08/25 04:54:47;;;;;;;14.70;5.00;;;;;;;20.32;100.00;100493.09;105170;1271;68089;-77
2022/08/25 04:57:35;;;;;;;13.30;5.30;;;;;;;20.34;100.00;100491.86;105187;1271;74789;-78
2022/08/25 05:00:23;;;;;;;14.70;5.20;;;;;;;20.37;100.00;100490.67;105155;1271;59842;-77
2022/08/25 05:03:11;;;;;;;14.70;5.00;;;;;;;20.40;100.00;100489.91;104968;1271;59412;-80
2022/08/25 05:06:00;;;;;;;13.40;4.80;;;;;;;20.46;100.00;100489.32;105130;1271;74737;-78
2022/08/25 05:08:48;;;;;;;12.70;4.70;;;;;;;20.51;100.00;100491.02;105248;1271;68078;-79
2022/08/25 05:11:37;;;;;;;15.30;5.10;;;;;;;20.58;100.00;100487.19;105337;1271;73276;-79
2022/08/25 05:14:25;;;;;;;12.70;4.50;;;;;;;20.68;100.00;100487.61;105236;1271;61340;-78
2022/08/25 05:17:13;;;;;;;14.50;4.80;;;;;;;20.82;100.00;100481.81;105304;1271;59678;-78
2022/08/25 05:20:02;;;;;;;17.50;4.90;;;;;;;20.97;100.00;100481.08;105301;1271;73683;-80
2022/08/25 05:22:50;;;;;;;14.60;5.00;;;;;;;21.06;100.00;100483.08;105370;1271;69683;-79
2022/08/25 05:25:38;;;;;;;13.20;4.60;;;;;;;21.10;100.00;100478.42;105284;1271;72437;-78
2022/08/25 05:28:26;;;;;;;13.20;4.90;;;;;;;21.12;100.00;100482.70;105222;1271;61339;-76
2022/08/25 05:31:15;;;;;;;14.80;5.10;;;;;;;21.12;100.00;100482.95;105337;1271;62081;-80
2022/08/25 05:34:07;;;;;;;14.70;4.50;;;;;;;21.09;100.00;100482.69;105148;1271;74691;-80
2022/08/25 05:36:58;;;;;;;15.70;4.70;;;;;;;21.11;100.00;100479.23;104966;1271;69342;-70
2022/08/25 05:39:47;;;;;;;14.30;4.80;;;;;;;21.14;99.76;100474.20;105089;1271;72843;-72
2022/08/25 05:42:35;;;;;;;17.00;5.20;;;;;;;21.17;99.35;100467.72;105117;1271;60239;-71
2022/08/25 05:45:24;;;;;;;12.80;5.10;;;;;;;21.17;99.00;100463.88;105178;1271;60822;-74
2022/08/25 05:48:12;;;;;;;12.30;4.80;;;;;;;21.23;99.13;100464.14;105295;1271;73857;-71
2022/08/25 05:51:05;;;;;;;12.60;4.80;;;;;;;21.32;98.51;100457.21;105333;1271;69587;-70
2022/08/25 05:53:53;;;;;;;11.40;4.50;;;;;;;21.52;97.98;100453.95;105150;1271;72858;-72
2022/08/25 05:56:41;;;;;;;13.00;4.30;;;;;;;21.64;95.92;100453.36;105131;1271;59921;-73
2022/08/25 05:59:29;;;;;;;13.10;4.90;;;;;;;21.79;95.31;100452.77;105001;1271;60668;-72
2022/08/25 06:05:28;;;;;;;11.20;4.30;;;;;;;22.14;92.75;100456.48;105308;1273;69584;-71
2022/08/25 06:08:16;;;;;;;14.40;4.30;;;;;;;22.22;91.65;100462.38;105442;1271;71005;-72
2022/08/25 06:11:04;;;;;;;11.10;4.70;;;;;;;22.29;91.38;100467.02;105238;1271;60301;-71
2022/08/25 06:13:52;;;;;;;17.60;5.90;;;;;;;22.44;90.87;100472.77;105171;1270;60523;-71
2022/08/25 06:16:40;;;;;;;14.70;5.60;;;;;;;22.58;90.23;100478.69;105233;1271;74388;-71
2022/08/25 06:19:30;;;;;;;16.90;7.80;;;;;;;22.63;89.49;100478.75;105158;1271;68311;-70
2022/08/25 06:22:21;;;;;;;14.90;6.10;;;;;;;22.55;87.61;100472.84;104974;1271;73438;-71
2022/08/25 06:25:12;;;;;;;13.00;4.10;;;;;;;22.43;87.70;100475.52;105137;1271;61251;-71
2022/08/25 06:28:00;;;;;;;14.90;4.30;;;;;;;22.33;88.40;100473.48;105114;1271;60483;-71
2022/08/25 06:30:49;;;;;;;15.70;5.60;;;;;;;22.26;88.91;100473.20;105158;1271;73078;-72
2022/08/25 06:33:38;;;;;;;24.90;15.90;;;;;;;22.26;89.39;100474.20;105141;1271;67754;-70
2022/08/25 06:36:27;;;;;;;14.10;4.80;;;;;;;22.34;89.13;100483.17;105137;1271;73623;-70
2022/08/25 06:39:14;;;;;;;13.90;5.10;;;;;;;22.50;88.81;100488.12;105136;1271;61258;-71
2022/08/25 06:42:03;;;;;;;22.60;5.10;;;;;;;22.60;87.47;100487.98;105095;1271;60874;-71
2022/08/25 06:44:51;;;;;;;17.80;6.40;;;;;;;22.71;87.04;100488.15;105131;1271;73102;-70
2022/08/25 06:47:39;;;;;;;20.20;4.80;;;;;;;22.81;86.48;100490.29;105328;1271;67364;-72
2022/08/25 06:50:27;;;;;;;13.70;5.20;;;;;;;22.90;85.82;100492.14;105428;1271;74227;-72
2022/08/25 06:53:15;;;;;;;14.90;4.30;;;;;;;23.08;84.16;100490.92;105137;1271;59704;-73
2022/08/25 06:56:05;;;;;;;14.40;4.40;;;;;;;23.64;83.42;100484.86;105147;1271;60741;-72
2022/08/25 06:58:53;;;;;;;16.50;4.70;;;;;;;24.24;80.27;100484.05;104932;1274;74660;-69
2022/08/25 07:01:42;;;;;;;14.00;4.80;;;;;;;24.29;78.28;100483.64;105078;1271;70236;-71
2022/08/25 07:04:32;;;;;;;13.50;4.30;;;;;;;24.21;77.71;100481.86;105176;1271;71436;-73
2022/08/25 07:07:20;;;;;;;14.70;4.50;;;;;;;24.17;78.00;100486.81;105008;1271;59989;-71
2022/08/25 07:10:09;;;;;;;15.60;4.20;;;;;;;24.08;77.40;100491.89;105216;1271;59582;-71
2022/08/25 07:12:57;;;;;;;13.80;4.40;;;;;;;24.54;76.61;100490.80;105040;1271;71020;-75
2022/08/25 07:15:46;;;;;;;17.60;5.20;;;;;;;25.41;73.82;100492.75;105371;1271;68067;-73
2022/08/25 07:18:34;;;;;;;10.20;4.00;;;;;;;25.96;68.47;100490.29;105129;1271;72965;-71
2022/08/25 07:21:25;;;;;;;14.60;4.70;;;;;;;25.89;68.43;100498.02;105235;1271;59678;-71
2022/08/25 07:24:21;;;;;;;16.40;6.50;;;;;;;25.94;67.71;100496.70;105121;1271;61528;-73
2022/08/25 07:27:09;;;;;;;13.80;5.30;;;;;;;26.21;66.46;100498.05;105139;1271;74920;-71
2022/08/25 07:29:58;;;;;;;15.80;5.00;;;;;;;26.02;66.55;100497.14;105152;1271;69667;-72
2022/08/25 07:32:46;;;;;;;14.00;4.90;;;;;;;26.57;66.22;100500.54;105511;1271;72919;-71
2022/08/25 07:35:41;;;;;;;15.90;4.80;;;;;;;26.60;64.71;100502.66;105127;1271;59697;-71
2022/08/25 07:38:30;;;;;;;17.30;6.90;;;;;;;26.51;64.49;100499.71;105403;1271;61002;-71
2022/08/25 07:41:18;;;;;;;10.90;4.40;;;;;;;26.26;65.25;100498.05;105239;1271;73255;-71
2022/08/25 07:44:09;;;;;;;16.50;4.60;;;;;;;26.10;65.58;100499.63;105532;1271;69249;-74
2022/08/25 07:46:58;;;;;;;16.50;4.50;;;;;;;25.97;66.06;100505.10;105387;1271;73990;-71
2022/08/25 07:49:46;;;;;;;11.90;4.70;;;;;;;26.07;65.91;100508.27;105423;1271;59848;-73
2022/08/25 07:52:35;;;;;;;15.70;4.80;;;;;;;26.01;66.50;100514.38;105216;1271;61143;-73
2022/08/25 07:55:29;;;;;;;14.80;4.80;;;;;;;25.80;67.34;100512.44;105313;1271;74844;-70
2022/08/25 07:58:17;;;;;;;16.70;4.90;;;;;;;25.92;67.89;100516.28;105558;1271;69571;-71
2022/08/25 08:01:06;;;;;;;17.10;4.50;;;;;;;25.92;66.38;100520.40;105079;1271;72787;-72
2022/08/25 08:03:54;;;;;;;14.40;4.70;;;;;;;25.64;66.46;100525.59;105174;1271;59640;-71
2022/08/25 08:06:45;;;;;;;15.30;5.00;;;;;;;25.36;67.48;100527.20;105215;1271;62020;-71
2022/08/25 08:09:33;;;;;;;14.40;4.60;;;;;;;25.06;69.08;100527.88;105194;1271;74737;-74
2022/08/25 08:12:24;;;;;;;15.00;4.60;;;;;;;24.79;70.09;100525.92;105266;1271;69620;-73
2022/08/25 08:15:13;;;;;;;15.50;4.70;;;;;;;24.63;70.58;100531.94;105291;1271;74525;-70
2022/08/25 08:18:02;;;;;;;13.80;4.90;;;;;;;24.53;71.39;100533.95;105259;1271;59658;-73
2022/08/25 08:20:50;;;;;;;19.00;9.90;;;;;;;24.36;72.37;100537.36;105215;1271;62097;-73
2022/08/25 08:23:39;;;;;;;14.20;6.10;;;;;;;24.37;73.08;100538.37;105167;1271;75318;-72
2022/08/25 08:26:27;;;;;;;16.70;8.50;;;;;;;24.60;73.01;100541.92;106808;1271;68820;-72
2022/08/25 08:29:37;;;;;;;18.10;7.40;;;;;;;24.57;72.68;100544.27;106849;1271;71464;-71
2022/08/25 08:32:26;;;;;;;15.80;5.80;;;;;;;24.54;73.10;100540.73;106873;1268;59732;-71
2022/08/25 08:35:33;;;;;;;19.50;6.90;;;;;;;24.61;72.80;100538.53;105330;1271;61784;-73
2022/08/25 08:38:21;;;;;;;15.20;7.00;;;;;;;24.48;72.73;100530.20;105111;1271;71731;-74
2022/08/25 08:45:20;;;;;;;15.40;6.50;;;;;;;24.12;74.78;100527.77;105250;1271;73385;-73
2022/08/25 08:48:39;;;;;;;17.10;7.00;;;;;;;23.97;75.88;100534.97;105263;1271;59748;-73
2022/08/25 08:51:43;;;;;;;19.70;7.60;;;;;;;23.78;77.20;100533.01;105459;1271;59531;-76
2022/08/25 08:54:38;;;;;;;20.90;6.80;;;;;;;23.53;78.27;100531.22;105329;1271;72572;-73
2022/08/25 08:57:34;;;;;;;18.30;8.10;;;;;;;23.23;79.29;100527.75;105176;1270;68920;-71
2022/08/25 09:00:24;;;;;;;24.90;8.40;;;;;;;22.98;80.75;100530.61;105027;1271;74539;-73
2022/08/25 09:03:37;;;;;;;23.60;8.80;;;;;;;22.82;82.37;100528.70;105160;1271;61471;-72
2022/08/25 09:06:40;;;;;;;18.80;8.70;;;;;;;22.70;83.36;100527.16;105474;1271;61322;-73
2022/08/25 09:09:33;;;;;;;22.30;8.90;;;;;;;22.56;84.59;100522.43;105362;1273;73265;-72
2022/08/25 09:12:55;;;;;;;19.80;10.20;;;;;;;22.46;85.76;100521.70;104986;1271;68053;-72
2022/08/25 09:19:54;;;;;;;20.30;8.40;;;;;;;22.15;88.94;100515.27;105260;1271;59969;-71
2022/08/25 09:23:23;;;;;;;21.10;9.00;;;;;;;22.08;89.53;100510.97;105139;1271;61067;-71
2022/08/25 09:26:20;;;;;;;25.90;9.50;;;;;;;22.02;90.53;100503.95;105481;1271;74718;-73
2022/08/25 09:29:18;;;;;;;21.70;8.80;;;;;;;21.94;90.95;100498.37;105250;1271;69615;-71
2022/08/25 09:32:07;;;;;;;23.80;9.50;;;;;;;21.96;91.47;100492.09;105193;1271;74636;-72
2022/08/25 09:34:58;;;;;;;24.90;8.50;;;;;;;21.91;92.02;100488.30;105190;1271;59953;-71
2022/08/25 09:38:05;;;;;;;20.10;8.20;;;;;;;21.88;92.16;100486.84;105118;1271;62053;-70
2022/08/25 09:40:59;;;;;;;29.50;16.80;;;;;;;21.88;92.40;100491.89;105150;1271;73725;-71
2022/08/25 09:43:54;;;;;;;23.40;9.40;;;;;;;21.87;92.54;100493.65;105279;1271;65803;-70
2022/08/25 09:47:22;;;;;;;24.70;11.80;;;;;;;21.88;92.78;100493.34;105042;1271;73093;-71
2022/08/25 09:50:18;;;;;;;26.80;12.00;;;;;;;21.84;92.63;100495.67;104756;1279;59697;-72
2022/08/25 09:53:14;;;;;;;26.00;9.50;;;;;;;21.79;92.63;100494.30;104892;1279;59660;-70
2022/08/25 09:56:06;;;;;;;29.70;10.50;;;;;;;21.79;93.03;100483.10;104449;1279;73234;-70
2022/08/25 09:59:10;;;;;;;24.20;8.60;;;;;;;21.83;92.76;100475.58;104605;1279;69168;-72
2022/08/25 10:02:24;;;;;;;23.10;9.30;;;;;;;21.91;92.57;100471.91;104461;1279;71587;-72
2022/08/25 10:05:26;;;;;;;26.60;9.10;;;;;;;22.01;92.68;100466.12;104792;1279;60329;-72
2022/08/25 10:08:37;;;;;;;25.00;9.50;;;;;;;22.10;91.92;100470.71;104614;1279;59726;-69
2022/08/25 10:11:44;;;;;;;28.70;10.30;;;;;;;22.14;91.27;100467.89;104612;1279;73088;-72
2022/08/25 10:14:39;;;;;;;24.10;9.40;;;;;;;22.21;90.54;100458.02;104731;1279;68062;-71
2022/08/25 10:17:32;;;;;;;21.50;10.30;;;;;;;22.26;90.43;100451.89;104430;1279;72996;-71
2022/08/25 10:20:27;;;;;;;23.80;9.30;;;;;;;22.35;90.25;100450.16;104454;1279;59718;-71
2022/08/25 10:23:26;;;;;;;23.20;9.00;;;;;;;22.50;89.74;100447.83;104607;1279;61063;-72
2022/08/25 10:26:46;;;;;;;23.60;9.20;;;;;;;22.71;88.73;100436.58;105217;1271;73272;-75
2022/08/25 10:30:07;;;;;;;22.60;9.30;;;;;;;22.87;87.70;100434.39;105123;1271;69504;-72
2022/08/25 10:33:19;;;;;;;25.80;10.10;;;;;;;22.97;87.13;100434.45;104448;1278;72973;-70
2022/08/25 10:36:19;;;;;;;21.70;8.70;;;;;;;23.03;86.07;100434.42;104942;1280;59782;-72
2022/08/25 10:39:26;;;;;;;24.90;8.80;;;;;;;23.11;85.32;100433.20;104714;1278;62028;-71
2022/08/25 10:42:29;;;;;;;22.30;8.90;;;;;;;23.21;84.42;100430.27;104458;1279;73177;-70
2022/08/25 10:48:55;;;;;;;21.70;9.70;;;;;;;23.42;83.64;100422.08;104875;1279;74088;-71
2022/08/25 10:52:01;;;;;;;23.40;8.20;;;;;;;23.53;82.82;100412.92;104695;1278;59737;-70
2022/08/25 10:55:03;;;;;;;25.70;10.20;;;;;;;23.55;82.13;100407.80;104636;1278;60585;-71
2022/08/25 10:58:08;;;;;;;20.50;8.80;;;;;;;23.81;81.23;100406.77;104678;1278;71899;-71
2022/08/25 11:01:32;;;;;;;24.30;8.00;;;;;;;23.95;80.16;100405.66;104946;1280;69625;-72
2022/08/25 11:04:52;;;;;;;23.20;7.20;;;;;;;24.04;80.03;100407.35;105188;1278;74617;-71
2022/08/25 11:07:48;;;;;;;23.30;7.70;;;;;;;24.58;77.78;100412.48;104839;1278;59662;-72
2022/08/25 11:10:50;;;;;;;19.00;7.40;;;;;;;25.75;72.79;100416.61;105131;1271;61006;-71
2022/08/25 11:14:08;;;;;;;20.40;7.30;;;;;;;26.00;71.63;100419.04;105405;1271;74827;-71
2022/08/25 11:17:10;;;;;;;23.80;7.30;;;;;;;26.20;69.57;100418.93;105429;1270;66892;-70
2022/08/25 11:20:08;;;;;;;21.60;7.50;;;;;;;26.16;69.18;100421.73;105342;1271;72265;-70
2022/08/25 11:23:52;;;;;;;25.20;7.00;;;;;;;26.01;69.65;100421.42;105231;1271;59555;-71
2022/08/25 11:26:55;;;;;;;21.30;7.90;;;;;;;25.97;69.16;100422.91;105111;1271;60518;-72
2022/08/25 11:29:58;;;;;;;24.60;7.70;;;;;;;26.16;69.28;100417.92;105099;1271;74852;-72
2022/08/25 11:32:51;;;;;;;26.50;7.30;;;;;;;26.36;68.63;100412.45;105118;1271;69834;-73
2022/08/25 11:36:04;;;;;;;23.20;7.10;;;;;;;26.56;67.65;100404.77;105131;1271;73132;-72
2022/08/25 11:39:19;;;;;;;30.10;7.90;;;;;;;26.71;66.38;100408.38;105181;1271;59578;-72
2022/08/25 11:42:59;;;;;;;24.60;7.00;;;;;;;26.50;66.47;100412.27;105105;1271;62009;-73
2022/08/25 11:46:31;;;;;;;18.60;6.60;;;;;;;26.30;66.33;100409.50;104965;1271;73727;-70
2022/08/25 11:49:52;;;;;;;22.50;7.70;;;;;;;26.57;66.42;100410.95;105468;1271;69796;-70
2022/08/25 11:52:50;;;;;;;22.40;7.00;;;;;;;26.81;65.78;100409.59;105291;1271;74582;-71
2022/08/25 11:55:50;;;;;;;22.40;7.10;;;;;;;26.76;64.62;100409.08;105314;1271;59659;-73
2022/08/25 11:58:50;;;;;;;23.70;6.10;;;;;;;26.50;65.11;100406.02;104954;1271;59641;-72
2022/08/25 12:01:38;;;;;;;20.50;6.70;;;;;;;26.28;66.41;100404.84;105288;1271;74746;-69
2022/08/25 12:04:41;;;;;;;20.80;6.50;;;;;;;26.37;66.52;100401.41;105122;1270;67853;-72
2022/08/25 12:08:37;;;;;;;21.80;6.70;;;;;;;26.57;66.57;100397.83;105095;1271;71284;-72
2022/08/25 12:11:06;;;;;;;18.50;6.40;;;;;;;26.81;64.73;100390.86;105159;1271;59690;-72
2022/08/25 12:14:27;;;;;;;22.30;6.60;;;;;;;26.84;64.31;100383.50;105493;1271;60371;-71
2022/08/25 12:17:25;;;;;;;19.80;6.60;;;;;;;26.79;64.32;100385.34;105469;1270;71994;-75
2022/08/25 12:20:13;;;;;;;19.00;6.60;;;;;;;26.96;63.95;100384.73;105333;1271;68894;-70
2022/08/25 12:23:02;;;;;;;26.70;6.50;;;;;;;27.09;63.27;100389.30;105060;1271;74344;-72
2022/08/25 12:25:54;;;;;;;22.80;6.50;;;;;;;27.13;62.35;100384.41;105378;1271;59738;-71
2022/08/25 12:29:04;;;;;;;17.60;6.30;;;;;;;27.13;62.36;100388.27;104928;1273;62052;-72
2022/08/25 12:32:09;;;;;;;23.10;6.40;;;;;;;26.87;62.89;100389.36;105161;1271;72105;-72
2022/08/25 12:35:41;;;;;;;18.00;6.70;;;;;;;26.52;64.02;100392.62;105315;1271;68571;-72
2022/08/25 12:38:36;;;;;;;23.60;7.00;;;;;;;26.19;65.32;100389.98;105153;1271;73353;-71
2022/08/25 12:41:30;;;;;;;21.10;7.30;;;;;;;25.87;66.44;100385.66;105350;1271;59694;-72
2022/08/25 12:44:46;;;;;;;25.70;6.80;;;;;;;25.58;67.30;100385.61;105171;1271;60108;-71
2022/08/25 12:47:35;;;;;;;20.70;6.30;;;;;;;25.29;68.68;100387.73;105584;1270;74676;-72
2022/08/25 12:50:42;;;;;;;25.50;7.30;;;;;;;24.98;69.63;100389.85;105073;1271;69549;-71
2022/08/25 12:54:15;;;;;;;24.10;7.00;;;;;;;24.70;70.89;100388.44;105498;1271;74568;-71
2022/08/25 12:57:59;;;;;;;21.50;7.90;;;;;;;24.51;72.18;100391.14;105200;1271;59674;-71
2022/08/25 13:01:05;;;;;;;23.50;7.50;;;;;;;24.29;73.22;100393.57;105145;1271;60998;-71
2022/08/25 13:04:30;;;;;;;22.20;6.60;;;;;;;24.12;73.92;100392.44;105204;1271;73643;-70
2022/08/25 13:07:42;;;;;;;19.20;6.40;;;;;;;23.97;75.00;100390.20;105389;1271;68017;-71
2022/08/25 13:11:14;;;;;;;18.40;5.70;;;;;;;23.89;75.85;100384.80;105570;1271;73345;-71
2022/08/25 13:14:36;;;;;;;21.90;7.00;;;;;;;23.74;76.44;100389.83;105126;1271;61584;-73
2022/08/25 13:17:34;;;;;;;23.80;7.60;;;;;;;23.67;77.03;100392.05;105079;1271;62104;-69
2022/08/25 13:20:27;;;;;;;21.80;7.10;;;;;;;23.64;76.92;100383.98;105137;1271;74717;-72
2022/08/25 13:23:25;;;;;;;22.90;8.70;;;;;;;23.63;77.44;100381.59;105384;1271;69111;-70
2022/08/25 13:26:38;;;;;;;21.70;7.40;;;;;;;23.61;77.60;100377.34;105287;1271;72830;-72
2022/08/25 13:29:52;;;;;;;23.70;7.70;;;;;;;23.57;78.17;100378.61;105241;1271;59785;-72
2022/08/25 13:32:40;;;;;;;24.20;7.30;;;;;;;23.50;78.80;100376.69;104995;1271;60391;-71